<?xml version="1.0" encoding="UTF-8" standalone="yes"?>
<gpx xmlns="http://www.topografix.com/GPX/1/1" xmlns:xsi="http://www.w3.org/2001/XMLSchema-instance" version="1.1" creator="MagicMaps Tour Explorer" xsi:schemaLocation="http://www.topografix.com/GPX/1/1 http://www.topografix.com/GPX/1/1/gpx.xsd">
  <trk>
    <name>rautberg-s</name>
    <trkseg>
      <trkpt lat="47.585483026" lon="11.393886683">
        <ele>812.9</ele>
        <time>2021-06-13T13:05:15Z</time>
      </trkpt>
      <trkpt lat="47.585482691" lon="11.393885678">
        <ele>812.5</ele>
        <time>2021-06-13T13:05:16Z</time>
      </trkpt>
      <trkpt lat="47.585471375" lon="11.393872099">
        <ele>811.5</ele>
        <time>2021-06-13T13:05:32Z</time>
      </trkpt>
      <trkpt lat="47.585472548" lon="11.393874278">
        <ele>810.5</ele>
        <time>2021-06-13T13:06:41Z</time>
      </trkpt>
      <trkpt lat="47.585467603" lon="11.393869333">
        <ele>812.5</ele>
        <time>2021-06-13T13:07:12Z</time>
      </trkpt>
      <trkpt lat="47.585470620" lon="11.393861035">
        <ele>812.0</ele>
        <time>2021-06-13T13:08:41Z</time>
      </trkpt>
      <trkpt lat="47.585484954" lon="11.393886600">
        <ele>812.5</ele>
        <time>2021-06-13T13:09:09Z</time>
      </trkpt>
      <trkpt lat="47.585447067" lon="11.393879224">
        <ele>812.5</ele>
        <time>2021-06-13T13:09:21Z</time>
      </trkpt>
      <trkpt lat="47.585434830" lon="11.393883666">
        <ele>810.5</ele>
        <time>2021-06-13T13:10:08Z</time>
      </trkpt>
      <trkpt lat="47.585379342" lon="11.393902777">
        <ele>811.0</ele>
        <time>2021-06-13T13:10:14Z</time>
      </trkpt>
      <trkpt lat="47.585359393" lon="11.393905878">
        <ele>811.0</ele>
        <time>2021-06-13T13:10:16Z</time>
      </trkpt>
      <trkpt lat="47.585277753" lon="11.393921804">
        <ele>811.5</ele>
        <time>2021-06-13T13:10:25Z</time>
      </trkpt>
      <trkpt lat="47.585246405" lon="11.393938232">
        <ele>812.0</ele>
        <time>2021-06-13T13:10:29Z</time>
      </trkpt>
      <trkpt lat="47.585104359" lon="11.394171269">
        <ele>804.8</ele>
        <time>2021-06-13T13:10:45Z</time>
      </trkpt>
      <trkpt lat="47.585173147" lon="11.394058596">
        <ele>812.9</ele>
        <time>2021-06-13T13:12:46Z</time>
      </trkpt>
      <trkpt lat="47.585034762" lon="11.394285662">
        <ele>813.4</ele>
        <time>2021-06-13T13:13:04Z</time>
      </trkpt>
      <trkpt lat="47.584962090" lon="11.394542148">
        <ele>814.9</ele>
        <time>2021-06-13T13:13:20Z</time>
      </trkpt>
      <trkpt lat="47.584903585" lon="11.394878430">
        <ele>815.8</ele>
        <time>2021-06-13T13:13:42Z</time>
      </trkpt>
      <trkpt lat="47.584818676" lon="11.395266177">
        <ele>816.8</ele>
        <time>2021-06-13T13:14:01Z</time>
      </trkpt>
      <trkpt lat="47.584733600" lon="11.395572871">
        <ele>818.2</ele>
        <time>2021-06-13T13:14:18Z</time>
      </trkpt>
      <trkpt lat="47.584627652" lon="11.395822065">
        <ele>817.7</ele>
        <time>2021-06-13T13:14:33Z</time>
      </trkpt>
      <trkpt lat="47.584558669" lon="11.396035971">
        <ele>817.7</ele>
        <time>2021-06-13T13:14:48Z</time>
      </trkpt>
      <trkpt lat="47.584423218" lon="11.396402512">
        <ele>819.2</ele>
        <time>2021-06-13T13:15:12Z</time>
      </trkpt>
      <trkpt lat="47.584269158" lon="11.396873742">
        <ele>820.6</ele>
        <time>2021-06-13T13:15:40Z</time>
      </trkpt>
      <trkpt lat="47.584259855" lon="11.396908443">
        <ele>820.6</ele>
        <time>2021-06-13T13:15:41Z</time>
      </trkpt>
      <trkpt lat="47.584163966" lon="11.397259310">
        <ele>821.6</ele>
        <time>2021-06-13T13:15:57Z</time>
      </trkpt>
      <trkpt lat="47.584014516" lon="11.397472881">
        <ele>821.6</ele>
        <time>2021-06-13T13:16:13Z</time>
      </trkpt>
      <trkpt lat="47.583887111" lon="11.397587294">
        <ele>822.1</ele>
        <time>2021-06-13T13:16:30Z</time>
      </trkpt>
      <trkpt lat="47.583886692" lon="11.397563657">
        <ele>821.6</ele>
        <time>2021-06-13T13:16:55Z</time>
      </trkpt>
      <trkpt lat="47.583899265" lon="11.397577487">
        <ele>822.5</ele>
        <time>2021-06-13T13:19:04Z</time>
      </trkpt>
      <trkpt lat="47.583877472" lon="11.397566507">
        <ele>822.5</ele>
        <time>2021-06-13T13:19:34Z</time>
      </trkpt>
      <trkpt lat="47.583855260" lon="11.397569776">
        <ele>822.5</ele>
        <time>2021-06-13T13:19:51Z</time>
      </trkpt>
      <trkpt lat="47.583771340" lon="11.397674866">
        <ele>815.6</ele>
        <time>2021-06-13T13:20:12Z</time>
      </trkpt>
      <trkpt lat="47.583561558" lon="11.398090208">
        <ele>821.6</ele>
        <time>2021-06-13T13:20:42Z</time>
      </trkpt>
      <trkpt lat="47.583361315" lon="11.398286680">
        <ele>821.6</ele>
        <time>2021-06-13T13:21:06Z</time>
      </trkpt>
      <trkpt lat="47.583339522" lon="11.398302019">
        <ele>821.6</ele>
        <time>2021-06-13T13:21:46Z</time>
      </trkpt>
      <trkpt lat="47.583314544" lon="11.398392124">
        <ele>821.6</ele>
        <time>2021-06-13T13:22:14Z</time>
      </trkpt>
      <trkpt lat="47.583276993" lon="11.398488097">
        <ele>820.6</ele>
        <time>2021-06-13T13:22:22Z</time>
      </trkpt>
      <trkpt lat="47.583269114" lon="11.398594631">
        <ele>820.6</ele>
        <time>2021-06-13T13:22:35Z</time>
      </trkpt>
      <trkpt lat="47.583232401" lon="11.398687167">
        <ele>820.1</ele>
        <time>2021-06-13T13:22:53Z</time>
      </trkpt>
      <trkpt lat="47.583115557" lon="11.398884561">
        <ele>820.6</ele>
        <time>2021-06-13T13:23:09Z</time>
      </trkpt>
      <trkpt lat="47.583042216" lon="11.399005679">
        <ele>818.2</ele>
        <time>2021-06-13T13:23:23Z</time>
      </trkpt>
      <trkpt lat="47.583033666" lon="11.399018504">
        <ele>817.7</ele>
        <time>2021-06-13T13:23:24Z</time>
      </trkpt>
      <trkpt lat="47.582994606" lon="11.399110537">
        <ele>821.1</ele>
        <time>2021-06-13T13:23:31Z</time>
      </trkpt>
      <trkpt lat="47.582989829" lon="11.399124367">
        <ele>821.6</ele>
        <time>2021-06-13T13:23:32Z</time>
      </trkpt>
      <trkpt lat="47.582930233" lon="11.399323857">
        <ele>824.0</ele>
        <time>2021-06-13T13:23:51Z</time>
      </trkpt>
      <trkpt lat="47.582930317" lon="11.399332154">
        <ele>824.0</ele>
        <time>2021-06-13T13:24:01Z</time>
      </trkpt>
      <trkpt lat="47.582943644" lon="11.399430558">
        <ele>823.5</ele>
        <time>2021-06-13T13:24:08Z</time>
      </trkpt>
      <trkpt lat="47.583023440" lon="11.399679584">
        <ele>824.5</ele>
        <time>2021-06-13T13:24:27Z</time>
      </trkpt>
      <trkpt lat="47.583077839" lon="11.399927856">
        <ele>827.8</ele>
        <time>2021-06-13T13:24:45Z</time>
      </trkpt>
      <trkpt lat="47.583103320" lon="11.400131788">
        <ele>830.7</ele>
        <time>2021-06-13T13:25:03Z</time>
      </trkpt>
      <trkpt lat="47.583063170" lon="11.400305796">
        <ele>834.1</ele>
        <time>2021-06-13T13:25:17Z</time>
      </trkpt>
      <trkpt lat="47.583042802" lon="11.400578292">
        <ele>837.0</ele>
        <time>2021-06-13T13:25:34Z</time>
      </trkpt>
      <trkpt lat="47.583031570" lon="11.400685748">
        <ele>837.5</ele>
        <time>2021-06-13T13:25:40Z</time>
      </trkpt>
      <trkpt lat="47.582995025" lon="11.400879119">
        <ele>838.9</ele>
        <time>2021-06-13T13:25:59Z</time>
      </trkpt>
      <trkpt lat="47.582977926" lon="11.400863780">
        <ele>838.9</ele>
        <time>2021-06-13T13:26:16Z</time>
      </trkpt>
      <trkpt lat="47.583004162" lon="11.400791947">
        <ele>838.9</ele>
        <time>2021-06-13T13:26:37Z</time>
      </trkpt>
      <trkpt lat="47.583015896" lon="11.400819523">
        <ele>838.4</ele>
        <time>2021-06-13T13:27:05Z</time>
      </trkpt>
      <trkpt lat="47.583012544" lon="11.400940055">
        <ele>838.9</ele>
        <time>2021-06-13T13:28:09Z</time>
      </trkpt>
      <trkpt lat="47.583004748" lon="11.401110962">
        <ele>841.8</ele>
        <time>2021-06-13T13:28:26Z</time>
      </trkpt>
      <trkpt lat="47.582996618" lon="11.401279774">
        <ele>845.1</ele>
        <time>2021-06-13T13:28:48Z</time>
      </trkpt>
      <trkpt lat="47.582980609" lon="11.401392929">
        <ele>848.0</ele>
        <time>2021-06-13T13:29:05Z</time>
      </trkpt>
      <trkpt lat="47.583035594" lon="11.401517317">
        <ele>851.4</ele>
        <time>2021-06-13T13:29:21Z</time>
      </trkpt>
      <trkpt lat="47.582992678" lon="11.401602728">
        <ele>854.3</ele>
        <time>2021-06-13T13:29:35Z</time>
      </trkpt>
      <trkpt lat="47.582934592" lon="11.401729714">
        <ele>857.6</ele>
        <time>2021-06-13T13:29:54Z</time>
      </trkpt>
      <trkpt lat="47.582974322" lon="11.401888132">
        <ele>860.5</ele>
        <time>2021-06-13T13:30:13Z</time>
      </trkpt>
      <trkpt lat="47.582942974" lon="11.401978908">
        <ele>863.9</ele>
        <time>2021-06-13T13:30:27Z</time>
      </trkpt>
      <trkpt lat="47.582883881" lon="11.402080832">
        <ele>866.8</ele>
        <time>2021-06-13T13:30:47Z</time>
      </trkpt>
      <trkpt lat="47.582889581" lon="11.402056189">
        <ele>867.7</ele>
        <time>2021-06-13T13:31:15Z</time>
      </trkpt>
      <trkpt lat="47.582889916" lon="11.402060883">
        <ele>868.2</ele>
        <time>2021-06-13T13:32:21Z</time>
      </trkpt>
      <trkpt lat="47.582892850" lon="11.402108325">
        <ele>871.1</ele>
        <time>2021-06-13T13:32:39Z</time>
      </trkpt>
      <trkpt lat="47.582881870" lon="11.402223995">
        <ele>871.1</ele>
        <time>2021-06-13T13:33:43Z</time>
      </trkpt>
      <trkpt lat="47.582855467" lon="11.402435219">
        <ele>871.6</ele>
        <time>2021-06-13T13:34:13Z</time>
      </trkpt>
      <trkpt lat="47.582745915" lon="11.402635714">
        <ele>871.6</ele>
        <time>2021-06-13T13:34:40Z</time>
      </trkpt>
      <trkpt lat="47.582728732" lon="11.402659183">
        <ele>879.7</ele>
        <time>2021-06-13T13:34:44Z</time>
      </trkpt>
      <trkpt lat="47.582726888" lon="11.402678294">
        <ele>879.7</ele>
        <time>2021-06-13T13:34:45Z</time>
      </trkpt>
      <trkpt lat="47.582697468" lon="11.402811985">
        <ele>881.2</ele>
        <time>2021-06-13T13:35:00Z</time>
      </trkpt>
      <trkpt lat="47.582647176" lon="11.402861774">
        <ele>883.1</ele>
        <time>2021-06-13T13:35:08Z</time>
      </trkpt>
      <trkpt lat="47.582630580" lon="11.403000830">
        <ele>886.0</ele>
        <time>2021-06-13T13:35:24Z</time>
      </trkpt>
      <trkpt lat="47.582619768" lon="11.403070651">
        <ele>888.4</ele>
        <time>2021-06-13T13:35:37Z</time>
      </trkpt>
      <trkpt lat="47.582595712" lon="11.403284641">
        <ele>891.8</ele>
        <time>2021-06-13T13:35:56Z</time>
      </trkpt>
      <trkpt lat="47.582562184" lon="11.403432749">
        <ele>894.6</ele>
        <time>2021-06-13T13:36:14Z</time>
      </trkpt>
      <trkpt lat="47.582551371" lon="11.403447166">
        <ele>895.1</ele>
        <time>2021-06-13T13:36:16Z</time>
      </trkpt>
      <trkpt lat="47.582425056" lon="11.403546659">
        <ele>898.5</ele>
        <time>2021-06-13T13:36:39Z</time>
      </trkpt>
      <trkpt lat="47.582361270" lon="11.403626120">
        <ele>901.4</ele>
        <time>2021-06-13T13:36:55Z</time>
      </trkpt>
      <trkpt lat="47.582285581" lon="11.403712537">
        <ele>904.3</ele>
        <time>2021-06-13T13:37:15Z</time>
      </trkpt>
      <trkpt lat="47.582262615" lon="11.403743299">
        <ele>907.6</ele>
        <time>2021-06-13T13:37:33Z</time>
      </trkpt>
      <trkpt lat="47.582247863" lon="11.403757883">
        <ele>908.1</ele>
        <time>2021-06-13T13:37:36Z</time>
      </trkpt>
      <trkpt lat="47.582229003" lon="11.403836086">
        <ele>911.0</ele>
        <time>2021-06-13T13:37:58Z</time>
      </trkpt>
      <trkpt lat="47.582166893" lon="11.403931473">
        <ele>914.4</ele>
        <time>2021-06-13T13:38:14Z</time>
      </trkpt>
      <trkpt lat="47.582158092" lon="11.403941112">
        <ele>914.8</ele>
        <time>2021-06-13T13:38:16Z</time>
      </trkpt>
      <trkpt lat="47.582132779" lon="11.404015962">
        <ele>918.2</ele>
        <time>2021-06-13T13:38:37Z</time>
      </trkpt>
      <trkpt lat="47.582222382" lon="11.404043622">
        <ele>921.1</ele>
        <time>2021-06-13T13:38:57Z</time>
      </trkpt>
      <trkpt lat="47.582233613" lon="11.404096931">
        <ele>923.0</ele>
        <time>2021-06-13T13:39:06Z</time>
      </trkpt>
      <trkpt lat="47.582200170" lon="11.404196005">
        <ele>926.4</ele>
        <time>2021-06-13T13:39:25Z</time>
      </trkpt>
      <trkpt lat="47.582182568" lon="11.404204722">
        <ele>926.9</ele>
        <time>2021-06-13T13:39:28Z</time>
      </trkpt>
      <trkpt lat="47.582122302" lon="11.404246632">
        <ele>927.8</ele>
        <time>2021-06-13T13:39:37Z</time>
      </trkpt>
      <trkpt lat="47.582039991" lon="11.404358447">
        <ele>929.7</ele>
        <time>2021-06-13T13:39:55Z</time>
      </trkpt>
      <trkpt lat="47.581900433" lon="11.404441595">
        <ele>930.7</ele>
        <time>2021-06-13T13:40:15Z</time>
      </trkpt>
      <trkpt lat="47.581847710" lon="11.404688442">
        <ele>933.6</ele>
        <time>2021-06-13T13:40:42Z</time>
      </trkpt>
      <trkpt lat="47.581796665" lon="11.404844597">
        <ele>935.0</ele>
        <time>2021-06-13T13:40:58Z</time>
      </trkpt>
      <trkpt lat="47.581844525" lon="11.405085660">
        <ele>937.9</ele>
        <time>2021-06-13T13:41:23Z</time>
      </trkpt>
      <trkpt lat="47.581866570" lon="11.405260759">
        <ele>940.8</ele>
        <time>2021-06-13T13:41:45Z</time>
      </trkpt>
      <trkpt lat="47.581910826" lon="11.405501906">
        <ele>944.1</ele>
        <time>2021-06-13T13:42:07Z</time>
      </trkpt>
      <trkpt lat="47.581918035" lon="11.405564854">
        <ele>945.6</ele>
        <time>2021-06-13T13:42:18Z</time>
      </trkpt>
      <trkpt lat="47.581847459" lon="11.405776329">
        <ele>948.5</ele>
        <time>2021-06-13T13:42:46Z</time>
      </trkpt>
      <trkpt lat="47.581735980" lon="11.406008927">
        <ele>951.8</ele>
        <time>2021-06-13T13:43:06Z</time>
      </trkpt>
      <trkpt lat="47.581725419" lon="11.406027870">
        <ele>952.3</ele>
        <time>2021-06-13T13:43:09Z</time>
      </trkpt>
      <trkpt lat="47.581666075" lon="11.406137003">
        <ele>953.3</ele>
        <time>2021-06-13T13:43:18Z</time>
      </trkpt>
      <trkpt lat="47.581613436" lon="11.406185618">
        <ele>953.8</ele>
        <time>2021-06-13T13:43:27Z</time>
      </trkpt>
      <trkpt lat="47.581565492" lon="11.406261725">
        <ele>954.7</ele>
        <time>2021-06-13T13:43:37Z</time>
      </trkpt>
      <trkpt lat="47.581453845" lon="11.406494156">
        <ele>957.6</ele>
        <time>2021-06-13T13:44:10Z</time>
      </trkpt>
      <trkpt lat="47.581462730" lon="11.406567246">
        <ele>960.5</ele>
        <time>2021-06-13T13:44:34Z</time>
      </trkpt>
      <trkpt lat="47.581446469" lon="11.406665901">
        <ele>963.4</ele>
        <time>2021-06-13T13:44:54Z</time>
      </trkpt>
      <trkpt lat="47.581438171" lon="11.406691130">
        <ele>964.3</ele>
        <time>2021-06-13T13:44:57Z</time>
      </trkpt>
      <trkpt lat="47.581417132" lon="11.406817110">
        <ele>966.3</ele>
        <time>2021-06-13T13:45:12Z</time>
      </trkpt>
      <trkpt lat="47.581471028" lon="11.406818954">
        <ele>968.7</ele>
        <time>2021-06-13T13:45:36Z</time>
      </trkpt>
      <trkpt lat="47.581574293" lon="11.406719210">
        <ele>971.5</ele>
        <time>2021-06-13T13:45:58Z</time>
      </trkpt>
      <trkpt lat="47.581630703" lon="11.406598259">
        <ele>974.4</ele>
        <time>2021-06-13T13:46:20Z</time>
      </trkpt>
      <trkpt lat="47.581650401" lon="11.406565905">
        <ele>975.4</ele>
        <time>2021-06-13T13:46:26Z</time>
      </trkpt>
      <trkpt lat="47.581680659" lon="11.406524330">
        <ele>975.9</ele>
        <time>2021-06-13T13:46:30Z</time>
      </trkpt>
      <trkpt lat="47.581797754" lon="11.406383347">
        <ele>979.2</ele>
        <time>2021-06-13T13:46:58Z</time>
      </trkpt>
      <trkpt lat="47.581840251" lon="11.406341018">
        <ele>981.2</ele>
        <time>2021-06-13T13:47:12Z</time>
      </trkpt>
      <trkpt lat="47.581838742" lon="11.406476637">
        <ele>983.1</ele>
        <time>2021-06-13T13:47:36Z</time>
      </trkpt>
      <trkpt lat="47.581793144" lon="11.406660453">
        <ele>985.0</ele>
        <time>2021-06-13T13:47:57Z</time>
      </trkpt>
      <trkpt lat="47.581827426" lon="11.406654585">
        <ele>987.9</ele>
        <time>2021-06-13T13:48:12Z</time>
      </trkpt>
      <trkpt lat="47.581871012" lon="11.406616196">
        <ele>988.9</ele>
        <time>2021-06-13T13:48:20Z</time>
      </trkpt>
      <trkpt lat="47.581851734" lon="11.406580321">
        <ele>990.8</ele>
        <time>2021-06-13T13:48:57Z</time>
      </trkpt>
      <trkpt lat="47.581849303" lon="11.406570850">
        <ele>990.8</ele>
        <time>2021-06-13T13:49:48Z</time>
      </trkpt>
      <trkpt lat="47.581861708" lon="11.406550817">
        <ele>990.8</ele>
        <time>2021-06-13T13:50:54Z</time>
      </trkpt>
      <trkpt lat="47.581896493" lon="11.406407906">
        <ele>990.8</ele>
        <time>2021-06-13T13:51:46Z</time>
      </trkpt>
      <trkpt lat="47.581911581" lon="11.406720299">
        <ele>990.8</ele>
        <time>2021-06-13T13:52:22Z</time>
      </trkpt>
      <trkpt lat="47.581901187" lon="11.406831611">
        <ele>999.4</ele>
        <time>2021-06-13T13:52:33Z</time>
      </trkpt>
      <trkpt lat="47.581897415" lon="11.406847956">
        <ele>999.9</ele>
        <time>2021-06-13T13:52:34Z</time>
      </trkpt>
      <trkpt lat="47.581889201" lon="11.406994723">
        <ele>1002.8</ele>
        <time>2021-06-13T13:52:56Z</time>
      </trkpt>
      <trkpt lat="47.581987437" lon="11.406966224">
        <ele>1006.2</ele>
        <time>2021-06-13T13:53:19Z</time>
      </trkpt>
      <trkpt lat="47.582025323" lon="11.407036129">
        <ele>1009.0</ele>
        <time>2021-06-13T13:53:39Z</time>
      </trkpt>
      <trkpt lat="47.582062455" lon="11.407008385">
        <ele>1011.0</ele>
        <time>2021-06-13T13:55:36Z</time>
      </trkpt>
      <trkpt lat="47.582001854" lon="11.407202762">
        <ele>1014.3</ele>
        <time>2021-06-13T13:56:07Z</time>
      </trkpt>
      <trkpt lat="47.581925998" lon="11.407393785">
        <ele>1017.7</ele>
        <time>2021-06-13T13:56:29Z</time>
      </trkpt>
      <trkpt lat="47.581850560" lon="11.407548012">
        <ele>1019.1</ele>
        <time>2021-06-13T13:56:53Z</time>
      </trkpt>
      <trkpt lat="47.581826504" lon="11.407604255">
        <ele>1022.0</ele>
        <time>2021-06-13T13:57:04Z</time>
      </trkpt>
      <trkpt lat="47.581820972" lon="11.407615235">
        <ele>1023.0</ele>
        <time>2021-06-13T13:57:06Z</time>
      </trkpt>
      <trkpt lat="47.581814686" lon="11.407748423">
        <ele>1025.4</ele>
        <time>2021-06-13T13:57:27Z</time>
      </trkpt>
      <trkpt lat="47.581799263" lon="11.407917738">
        <ele>1027.8</ele>
        <time>2021-06-13T13:57:45Z</time>
      </trkpt>
      <trkpt lat="47.581810579" lon="11.408046819">
        <ele>1030.7</ele>
        <time>2021-06-13T13:58:07Z</time>
      </trkpt>
      <trkpt lat="47.581811249" lon="11.408053944">
        <ele>1031.2</ele>
        <time>2021-06-13T13:58:08Z</time>
      </trkpt>
      <trkpt lat="47.581832707" lon="11.408256451">
        <ele>1034.0</ele>
        <time>2021-06-13T13:58:26Z</time>
      </trkpt>
      <trkpt lat="47.581849806" lon="11.408392321">
        <ele>1037.4</ele>
        <time>2021-06-13T13:58:48Z</time>
      </trkpt>
      <trkpt lat="47.581879813" lon="11.408575969">
        <ele>1039.8</ele>
        <time>2021-06-13T13:59:11Z</time>
      </trkpt>
      <trkpt lat="47.581898673" lon="11.408707397">
        <ele>1042.7</ele>
        <time>2021-06-13T13:59:30Z</time>
      </trkpt>
      <trkpt lat="47.581849219" lon="11.408847626">
        <ele>1046.0</ele>
        <time>2021-06-13T13:59:50Z</time>
      </trkpt>
      <trkpt lat="47.581864893" lon="11.408853913">
        <ele>1048.9</ele>
        <time>2021-06-13T14:00:12Z</time>
      </trkpt>
      <trkpt lat="47.581888614" lon="11.408791887">
        <ele>1049.9</ele>
        <time>2021-06-13T14:00:23Z</time>
      </trkpt>
      <trkpt lat="47.581913760" lon="11.408634474">
        <ele>1053.3</ele>
        <time>2021-06-13T14:00:46Z</time>
      </trkpt>
      <trkpt lat="47.581935301" lon="11.408684598">
        <ele>1054.7</ele>
        <time>2021-06-13T14:00:57Z</time>
      </trkpt>
      <trkpt lat="47.581930272" lon="11.408784008">
        <ele>1056.2</ele>
        <time>2021-06-13T14:01:08Z</time>
      </trkpt>
      <trkpt lat="47.581845112" lon="11.409023898">
        <ele>1059.5</ele>
        <time>2021-06-13T14:01:29Z</time>
      </trkpt>
      <trkpt lat="47.581839161" lon="11.409061197">
        <ele>1060.0</ele>
        <time>2021-06-13T14:01:31Z</time>
      </trkpt>
      <trkpt lat="47.581817871" lon="11.409266302">
        <ele>1062.9</ele>
        <time>2021-06-13T14:01:52Z</time>
      </trkpt>
      <trkpt lat="47.581847459" lon="11.409140238">
        <ele>1066.2</ele>
        <time>2021-06-13T14:02:08Z</time>
      </trkpt>
      <trkpt lat="47.581979558" lon="11.409004452">
        <ele>1068.6</ele>
        <time>2021-06-13T14:02:32Z</time>
      </trkpt>
      <trkpt lat="47.581993891" lon="11.408984084">
        <ele>1069.1</ele>
        <time>2021-06-13T14:02:34Z</time>
      </trkpt>
      <trkpt lat="47.582056755" lon="11.408798760">
        <ele>1070.6</ele>
        <time>2021-06-13T14:02:54Z</time>
      </trkpt>
      <trkpt lat="47.582087265" lon="11.408602036">
        <ele>1073.9</ele>
        <time>2021-06-13T14:03:17Z</time>
      </trkpt>
      <trkpt lat="47.582179131" lon="11.408471949">
        <ele>1076.3</ele>
        <time>2021-06-13T14:03:46Z</time>
      </trkpt>
      <trkpt lat="47.582248030" lon="11.408537496">
        <ele>1076.8</ele>
        <time>2021-06-13T14:04:19Z</time>
      </trkpt>
      <trkpt lat="47.582393121" lon="11.408693986">
        <ele>1077.8</ele>
        <time>2021-06-13T14:04:45Z</time>
      </trkpt>
      <trkpt lat="47.582424469" lon="11.408814183">
        <ele>1081.1</ele>
        <time>2021-06-13T14:05:00Z</time>
      </trkpt>
      <trkpt lat="47.582452800" lon="11.408941671">
        <ele>1084.0</ele>
        <time>2021-06-13T14:05:19Z</time>
      </trkpt>
      <trkpt lat="47.582499152" lon="11.409059018">
        <ele>1087.4</ele>
        <time>2021-06-13T14:05:39Z</time>
      </trkpt>
      <trkpt lat="47.582491860" lon="11.409196816">
        <ele>1090.3</ele>
        <time>2021-06-13T14:06:00Z</time>
      </trkpt>
      <trkpt lat="47.582470235" lon="11.409231685">
        <ele>1092.2</ele>
        <time>2021-06-13T14:06:08Z</time>
      </trkpt>
      <trkpt lat="47.582403934" lon="11.409305865">
        <ele>1095.1</ele>
        <time>2021-06-13T14:06:33Z</time>
      </trkpt>
      <trkpt lat="47.582436539" lon="11.409327406">
        <ele>1096.5</ele>
        <time>2021-06-13T14:06:40Z</time>
      </trkpt>
      <trkpt lat="47.582479036" lon="11.409408627">
        <ele>1099.9</ele>
        <time>2021-06-13T14:07:01Z</time>
      </trkpt>
      <trkpt lat="47.582477359" lon="11.409471575">
        <ele>1101.3</ele>
        <time>2021-06-13T14:07:10Z</time>
      </trkpt>
      <trkpt lat="47.582582217" lon="11.409547934">
        <ele>1104.7</ele>
        <time>2021-06-13T14:07:30Z</time>
      </trkpt>
      <trkpt lat="47.582606189" lon="11.409556484">
        <ele>1106.1</ele>
        <time>2021-06-13T14:07:39Z</time>
      </trkpt>
      <trkpt lat="47.582617169" lon="11.409637202">
        <ele>1108.1</ele>
        <time>2021-06-13T14:07:55Z</time>
      </trkpt>
      <trkpt lat="47.582614990" lon="11.409714566">
        <ele>1111.4</ele>
        <time>2021-06-13T14:08:14Z</time>
      </trkpt>
      <trkpt lat="47.582632592" lon="11.409811210">
        <ele>1114.8</ele>
        <time>2021-06-13T14:08:33Z</time>
      </trkpt>
      <trkpt lat="47.582667712" lon="11.409820681">
        <ele>1115.8</ele>
        <time>2021-06-13T14:08:39Z</time>
      </trkpt>
      <trkpt lat="47.582775420" lon="11.409952445">
        <ele>1118.6</ele>
        <time>2021-06-13T14:09:01Z</time>
      </trkpt>
      <trkpt lat="47.582766619" lon="11.410032324">
        <ele>1121.0</ele>
        <time>2021-06-13T14:09:17Z</time>
      </trkpt>
      <trkpt lat="47.582768546" lon="11.410156712">
        <ele>1123.0</ele>
        <time>2021-06-13T14:09:31Z</time>
      </trkpt>
      <trkpt lat="47.582855718" lon="11.410399871">
        <ele>1124.4</ele>
        <time>2021-06-13T14:10:01Z</time>
      </trkpt>
      <trkpt lat="47.582858568" lon="11.410420239">
        <ele>1123.4</ele>
        <time>2021-06-13T14:10:03Z</time>
      </trkpt>
      <trkpt lat="47.582873656" lon="11.410460472">
        <ele>1126.8</ele>
        <time>2021-06-13T14:10:08Z</time>
      </trkpt>
      <trkpt lat="47.582934005" lon="11.410708157">
        <ele>1129.2</ele>
        <time>2021-06-13T14:10:36Z</time>
      </trkpt>
      <trkpt lat="47.582949260" lon="11.410872275">
        <ele>1132.6</ele>
        <time>2021-06-13T14:10:57Z</time>
      </trkpt>
      <trkpt lat="47.582940459" lon="11.410976797">
        <ele>1135.5</ele>
        <time>2021-06-13T14:11:15Z</time>
      </trkpt>
      <trkpt lat="47.582889916" lon="11.410951316">
        <ele>1136.9</ele>
        <time>2021-06-13T14:11:25Z</time>
      </trkpt>
      <trkpt lat="47.582652206" lon="11.410773369">
        <ele>1139.8</ele>
        <time>2021-06-13T14:11:57Z</time>
      </trkpt>
      <trkpt lat="47.582643069" lon="11.410818128">
        <ele>1142.7</ele>
        <time>2021-06-13T14:12:15Z</time>
      </trkpt>
      <trkpt lat="47.582780616" lon="11.410964141">
        <ele>1146.0</ele>
        <time>2021-06-13T14:12:36Z</time>
      </trkpt>
      <trkpt lat="47.582783550" lon="11.410973612">
        <ele>1146.0</ele>
        <time>2021-06-13T14:12:37Z</time>
      </trkpt>
      <trkpt lat="47.582854880" lon="11.411144100">
        <ele>1149.4</ele>
        <time>2021-06-13T14:12:56Z</time>
      </trkpt>
      <trkpt lat="47.582867453" lon="11.411291873">
        <ele>1152.3</ele>
        <time>2021-06-13T14:13:15Z</time>
      </trkpt>
      <trkpt lat="47.582864100" lon="11.411355576">
        <ele>1153.2</ele>
        <time>2021-06-13T14:13:22Z</time>
      </trkpt>
      <trkpt lat="47.582882876" lon="11.411408885">
        <ele>1154.2</ele>
        <time>2021-06-13T14:13:26Z</time>
      </trkpt>
      <trkpt lat="47.582903998" lon="11.411468396">
        <ele>1155.2</ele>
        <time>2021-06-13T14:13:32Z</time>
      </trkpt>
      <trkpt lat="47.582894694" lon="11.411565626">
        <ele>1157.6</ele>
        <time>2021-06-13T14:14:01Z</time>
      </trkpt>
      <trkpt lat="47.582864100" lon="11.411528243">
        <ele>1159.0</ele>
        <time>2021-06-13T14:14:20Z</time>
      </trkpt>
      <trkpt lat="47.582850186" lon="11.411530087">
        <ele>1160.9</ele>
        <time>2021-06-13T14:14:32Z</time>
      </trkpt>
      <trkpt lat="47.582834344" lon="11.411840552">
        <ele>1163.8</ele>
        <time>2021-06-13T14:15:09Z</time>
      </trkpt>
      <trkpt lat="47.582869800" lon="11.411996540">
        <ele>1164.3</ele>
        <time>2021-06-13T14:15:23Z</time>
      </trkpt>
      <trkpt lat="47.582898550" lon="11.412081197">
        <ele>1167.7</ele>
        <time>2021-06-13T14:15:34Z</time>
      </trkpt>
      <trkpt lat="47.582808696" lon="11.412115982">
        <ele>1171.0</ele>
        <time>2021-06-13T14:15:53Z</time>
      </trkpt>
      <trkpt lat="47.582794698" lon="11.412109695">
        <ele>1172.0</ele>
        <time>2021-06-13T14:15:55Z</time>
      </trkpt>
      <trkpt lat="47.582742311" lon="11.412049429">
        <ele>1173.4</ele>
        <time>2021-06-13T14:16:23Z</time>
      </trkpt>
      <trkpt lat="47.582710208" lon="11.411848180">
        <ele>1175.8</ele>
        <time>2021-06-13T14:16:49Z</time>
      </trkpt>
      <trkpt lat="47.582686488" lon="11.411785651">
        <ele>1177.3</ele>
        <time>2021-06-13T14:16:56Z</time>
      </trkpt>
      <trkpt lat="47.582651954" lon="11.411744664">
        <ele>1180.6</ele>
        <time>2021-06-13T14:17:15Z</time>
      </trkpt>
      <trkpt lat="47.582590431" lon="11.411750363">
        <ele>1183.5</ele>
        <time>2021-06-13T14:17:30Z</time>
      </trkpt>
      <trkpt lat="47.582499990" lon="11.411715243">
        <ele>1186.4</ele>
        <time>2021-06-13T14:17:54Z</time>
      </trkpt>
      <trkpt lat="47.582439473" lon="11.411676183">
        <ele>1188.3</ele>
        <time>2021-06-13T14:18:21Z</time>
      </trkpt>
      <trkpt lat="47.582389768" lon="11.411647014">
        <ele>1189.8</ele>
        <time>2021-06-13T14:18:47Z</time>
      </trkpt>
      <trkpt lat="47.582405526" lon="11.411658833">
        <ele>1189.8</ele>
        <time>2021-06-13T14:19:29Z</time>
      </trkpt>
      <trkpt lat="47.582350541" lon="11.411762014">
        <ele>1191.2</ele>
        <time>2021-06-13T14:19:50Z</time>
      </trkpt>
      <trkpt lat="47.582340147" lon="11.411784561">
        <ele>1192.2</ele>
        <time>2021-06-13T14:20:41Z</time>
      </trkpt>
      <trkpt lat="47.582317097" lon="11.411905261">
        <ele>1195.5</ele>
        <time>2021-06-13T14:21:01Z</time>
      </trkpt>
      <trkpt lat="47.582297903" lon="11.411948511">
        <ele>1196.0</ele>
        <time>2021-06-13T14:21:05Z</time>
      </trkpt>
      <trkpt lat="47.582282061" lon="11.412108690">
        <ele>1199.4</ele>
        <time>2021-06-13T14:21:40Z</time>
      </trkpt>
      <trkpt lat="47.582315002" lon="11.412184210">
        <ele>1200.3</ele>
        <time>2021-06-13T14:22:14Z</time>
      </trkpt>
      <trkpt lat="47.582324473" lon="11.412277585">
        <ele>1200.3</ele>
        <time>2021-06-13T14:22:39Z</time>
      </trkpt>
      <trkpt lat="47.582355319" lon="11.412368529">
        <ele>1201.3</ele>
        <time>2021-06-13T14:22:52Z</time>
      </trkpt>
      <trkpt lat="47.582429079" lon="11.412499957">
        <ele>1203.7</ele>
        <time>2021-06-13T14:23:13Z</time>
      </trkpt>
      <trkpt lat="47.582413824" lon="11.412625518">
        <ele>1204.7</ele>
        <time>2021-06-13T14:23:31Z</time>
      </trkpt>
      <trkpt lat="47.582417345" lon="11.412688466">
        <ele>1204.2</ele>
        <time>2021-06-13T14:23:44Z</time>
      </trkpt>
      <trkpt lat="47.582428325" lon="11.412807489">
        <ele>1201.8</ele>
        <time>2021-06-13T14:24:01Z</time>
      </trkpt>
      <trkpt lat="47.582420530" lon="11.412839172">
        <ele>1200.8</ele>
        <time>2021-06-13T14:42:17Z</time>
      </trkpt>
      <trkpt lat="47.582370322" lon="11.412743870">
        <ele>1203.7</ele>
        <time>2021-06-13T14:42:33Z</time>
      </trkpt>
      <trkpt lat="47.582357246" lon="11.412669774">
        <ele>1205.2</ele>
        <time>2021-06-13T14:42:47Z</time>
      </trkpt>
      <trkpt lat="47.582360599" lon="11.412662985">
        <ele>1205.2</ele>
        <time>2021-06-13T14:43:06Z</time>
      </trkpt>
      <trkpt lat="47.582343500" lon="11.412665416">
        <ele>1205.2</ele>
        <time>2021-06-13T14:43:33Z</time>
      </trkpt>
      <trkpt lat="47.582346098" lon="11.412671031">
        <ele>1204.2</ele>
        <time>2021-06-13T14:43:47Z</time>
      </trkpt>
      <trkpt lat="47.582349535" lon="11.412661476">
        <ele>1203.2</ele>
        <time>2021-06-13T14:45:03Z</time>
      </trkpt>
      <trkpt lat="47.582352050" lon="11.412656615">
        <ele>1204.2</ele>
        <time>2021-06-13T14:46:29Z</time>
      </trkpt>
      <trkpt lat="47.582352217" lon="11.412655609">
        <ele>1203.7</ele>
        <time>2021-06-13T14:47:12Z</time>
      </trkpt>
    </trkseg>
  </trk>
</gpx>
